sensor_id;sensor_type;location;lat;lon;timestamp;temperature;humidity
15556;DHT22;7879;48.660;9.116;2023-04-01T00:00:29;7.30;99.90
15556;DHT22;7879;48.660;9.116;2023-04-01T00:02:56;7.30;99.90
15556;DHT22;7879;48.660;9.116;2023-04-01T00:05:23;7.30;99.90
15556;DHT22;7879;48.660;9.116;2023-04-01T00:07:51;7.30;99.90
15556;DHT22;7879;48.660;9.116;2023-04-01T00:10:18;7.30;99.90
15556;DHT22;7879;48.660;9.116;2023-04-01T00:12:45;7.30;99.90
15556;DHT22;7879;48.660;9.116;2023-04-01T00:15:13;7.30;99.90
15556;DHT22;7879;48.660;9.116;2023-04-01T00:17:39;7.40;99.90
15556;DHT22;7879;48.660;9.116;2023-04-01T00:20:07;7.30;99.90
15556;DHT22;7879;48.660;9.116;2023-04-01T00:22:34;7.30;99.90
15556;DHT22;7879;48.660;9.116;2023-04-01T00:25:01;7.30;99.90
15556;DHT22;7879;48.660;9.116;2023-04-01T00:27:28;7.30;99.90
15556;DHT22;7879;48.660;9.116;2023-04-01T00:29:55;7.30;99.90
15556;DHT22;7879;48.660;9.116;2023-04-01T00:32:22;7.30;99.90
15556;DHT22;7879;48.660;9.116;2023-04-01T00:34:52;7.20;99.90
15556;DHT22;7879;48.660;9.116;2023-04-01T00:37:20;7.30;99.90
15556;DHT22;7879;48.660;9.116;2023-04-01T00:39:48;7.30;99.90
15556;DHT22;7879;48.660;9.116;2023-04-01T00:42:14;7.30;99.90
15556;DHT22;7879;48.660;9.116;2023-04-01T00:47:14;7.30;99.90
15556;DHT22;7879;48.660;9.116;2023-04-01T00:49:45;7.30;99.90
15556;DHT22;7879;48.660;9.116;2023-04-01T00:52:16;7.30;99.90
15556;DHT22;7879;48.660;9.116;2023-04-01T00:54:47;7.30;99.90
15556;DHT22;7879;48.660;9.116;2023-04-01T00:59:52;7.30;99.90
15556;DHT22;7879;48.660;9.116;2023-04-01T01:02:20;7.30;99.90
15556;DHT22;7879;48.660;9.116;2023-04-01T01:04:47;7.30;99.90
15556;DHT22;7879;48.660;9.116;2023-04-01T01:07:53;7.30;99.90
15556;DHT22;7879;48.660;9.116;2023-04-01T01:10:24;7.30;99.90
15556;DHT22;7879;48.660;9.116;2023-04-01T01:13:16;7.30;99.90
15556;DHT22;7879;48.660;9.116;2023-04-01T01:15:57;7.30;99.90
15556;DHT22;7879;48.660;9.116;2023-04-01T01:18:35;7.20;99.90
15556;DHT22;7879;48.660;9.116;2023-04-01T01:24:01;7.30;99.90
15556;DHT22;7879;48.660;9.116;2023-04-01T01:37:43;7.20;99.90
15556;DHT22;7879;48.660;9.116;2023-04-01T01:40:11;7.20;99.90
15556;DHT22;7879;48.660;9.116;2023-04-01T01:42:44;7.20;99.90
15556;DHT22;7879;48.660;9.116;2023-04-01T01:45:14;7.20;99.90
15556;DHT22;7879;48.660;9.116;2023-04-01T01:47:45;7.20;99.90
15556;DHT22;7879;48.660;9.116;2023-04-01T01:50:13;7.20;99.90
15556;DHT22;7879;48.660;9.116;2023-04-01T01:52:41;7.20;99.90
15556;DHT22;7879;48.660;9.116;2023-04-01T01:55:32;7.20;99.90
15556;DHT22;7879;48.660;9.116;2023-04-01T02:00:37;7.20;99.90
15556;DHT22;7879;48.660;9.116;2023-04-01T02:03:05;7.10;99.90
15556;DHT22;7879;48.660;9.116;2023-04-01T02:05:32;7.10;99.90
15556;DHT22;7879;48.660;9.116;2023-04-01T02:08:16;7.10;99.90
15556;DHT22;7879;48.660;9.116;2023-04-01T02:10:53;7.10;99.90
15556;DHT22;7879;48.660;9.116;2023-04-01T02:13:34;7.10;99.90
15556;DHT22;7879;48.660;9.116;2023-04-01T02:16:05;7.10;99.90
15556;DHT22;7879;48.660;9.116;2023-04-01T02:18:35;7.10;99.90
15556;DHT22;7879;48.660;9.116;2023-04-01T02:21:04;7.00;99.90
15556;DHT22;7879;48.660;9.116;2023-04-01T02:23:33;7.10;99.90
15556;DHT22;7879;48.660;9.116;2023-04-01T02:26:02;7.00;99.90
15556;DHT22;7879;48.660;9.116;2023-04-01T02:28:32;7.00;99.90
15556;DHT22;7879;48.660;9.116;2023-04-01T02:31:00;7.00;99.90
15556;DHT22;7879;48.660;9.116;2023-04-01T02:33:30;7.00;99.90
15556;DHT22;7879;48.660;9.116;2023-04-01T02:35:58;7.00;99.90
15556;DHT22;7879;48.660;9.116;2023-04-01T02:38:26;7.00;99.90
15556;DHT22;7879;48.660;9.116;2023-04-01T02:40:58;7.00;99.90
15556;DHT22;7879;48.660;9.116;2023-04-01T02:43:26;7.00;99.90
15556;DHT22;7879;48.660;9.116;2023-04-01T02:45:53;7.00;99.90
15556;DHT22;7879;48.660;9.116;2023-04-01T02:48:21;7.00;99.90
15556;DHT22;7879;48.660;9.116;2023-04-01T02:50:47;6.90;99.90
15556;DHT22;7879;48.660;9.116;2023-04-01T02:53:15;6.90;99.90
15556;DHT22;7879;48.660;9.116;2023-04-01T02:55:42;6.90;99.90
15556;DHT22;7879;48.660;9.116;2023-04-01T02:58:08;6.90;99.90
15556;DHT22;7879;48.660;9.116;2023-04-01T03:00:35;6.90;99.90
15556;DHT22;7879;48.660;9.116;2023-04-01T03:03:02;6.80;99.90
15556;DHT22;7879;48.660;9.116;2023-04-01T03:05:29;6.90;99.90
15556;DHT22;7879;48.660;9.116;2023-04-01T03:07:57;6.90;99.90
15556;DHT22;7879;48.660;9.116;2023-04-01T03:10:24;6.80;99.90
15556;DHT22;7879;48.660;9.116;2023-04-01T03:12:51;6.90;99.90
15556;DHT22;7879;48.660;9.116;2023-04-01T03:15:18;6.80;99.90
15556;DHT22;7879;48.660;9.116;2023-04-01T03:17:44;6.80;99.90
15556;DHT22;7879;48.660;9.116;2023-04-01T03:20:13;6.80;99.90
15556;DHT22;7879;48.660;9.116;2023-04-01T03:22:40;6.80;99.90
15556;DHT22;7879;48.660;9.116;2023-04-01T03:25:10;6.80;99.90
15556;DHT22;7879;48.660;9.116;2023-04-01T03:27:37;6.80;99.90
15556;DHT22;7879;48.660;9.116;2023-04-01T03:30:05;6.80;99.90
15556;DHT22;7879;48.660;9.116;2023-04-01T03:32:32;6.80;99.90
15556;DHT22;7879;48.660;9.116;2023-04-01T03:34:59;6.70;99.90
15556;DHT22;7879;48.660;9.116;2023-04-01T03:37:26;6.80;99.90
15556;DHT22;7879;48.660;9.116;2023-04-01T03:39:53;6.70;99.90
15556;DHT22;7879;48.660;9.116;2023-04-01T03:42:19;6.70;99.90
15556;DHT22;7879;48.660;9.116;2023-04-01T03:44:46;6.70;99.90
15556;DHT22;7879;48.660;9.116;2023-04-01T03:47:13;6.70;99.90
15556;DHT22;7879;48.660;9.116;2023-04-01T03:49:40;6.70;99.90
15556;DHT22;7879;48.660;9.116;2023-04-01T03:52:10;6.70;99.90
15556;DHT22;7879;48.660;9.116;2023-04-01T03:54:37;6.70;99.90
15556;DHT22;7879;48.660;9.116;2023-04-01T03:57:04;6.70;99.90
15556;DHT22;7879;48.660;9.116;2023-04-01T03:59:31;6.70;99.90
15556;DHT22;7879;48.660;9.116;2023-04-01T04:01:58;6.70;99.90
15556;DHT22;7879;48.660;9.116;2023-04-01T04:04:25;6.60;99.90
15556;DHT22;7879;48.660;9.116;2023-04-01T04:06:53;6.70;99.90
15556;DHT22;7879;48.660;9.116;2023-04-01T04:09:20;6.60;99.90
15556;DHT22;7879;48.660;9.116;2023-04-01T04:11:47;6.60;99.90
15556;DHT22;7879;48.660;9.116;2023-04-01T04:14:14;6.50;99.90
15556;DHT22;7879;48.660;9.116;2023-04-01T04:16:41;6.50;99.90
15556;DHT22;7879;48.660;9.116;2023-04-01T04:19:07;6.50;99.90
15556;DHT22;7879;48.660;9.116;2023-04-01T04:21:34;6.50;99.90
15556;DHT22;7879;48.660;9.116;2023-04-01T04:24:02;6.50;99.90
15556;DHT22;7879;48.660;9.116;2023-04-01T04:26:28;6.40;99.90
15556;DHT22;7879;48.660;9.116;2023-04-01T04:28:56;6.40;99.90
15556;DHT22;7879;48.660;9.116;2023-04-01T04:31:24;6.40;99.90
15556;DHT22;7879;48.660;9.116;2023-04-01T04:33:52;6.40;99.90
15556;DHT22;7879;48.660;9.116;2023-04-01T04:36:20;6.40;99.90
15556;DHT22;7879;48.660;9.116;2023-04-01T04:38:48;6.40;99.90
15556;DHT22;7879;48.660;9.116;2023-04-01T04:41:16;6.30;99.90
15556;DHT22;7879;48.660;9.116;2023-04-01T04:43:55;6.40;99.90
15556;DHT22;7879;48.660;9.116;2023-04-01T04:46:22;6.40;99.90
15556;DHT22;7879;48.660;9.116;2023-04-01T04:48:49;6.40;99.90
15556;DHT22;7879;48.660;9.116;2023-04-01T04:51:18;6.40;99.90
15556;DHT22;7879;48.660;9.116;2023-04-01T04:53:45;6.50;99.90
15556;DHT22;7879;48.660;9.116;2023-04-01T04:56:12;6.40;99.90
15556;DHT22;7879;48.660;9.116;2023-04-01T04:58:39;6.40;99.90
15556;DHT22;7879;48.660;9.116;2023-04-01T05:01:08;6.40;99.90
15556;DHT22;7879;48.660;9.116;2023-04-01T05:03:35;6.40;99.90
15556;DHT22;7879;48.660;9.116;2023-04-01T05:06:02;6.40;99.90
15556;DHT22;7879;48.660;9.116;2023-04-01T05:08:29;6.40;99.90
15556;DHT22;7879;48.660;9.116;2023-04-01T05:10:56;6.40;99.90
15556;DHT22;7879;48.660;9.116;2023-04-01T05:13:23;6.50;99.90
15556;DHT22;7879;48.660;9.116;2023-04-01T05:15:50;6.40;99.90
15556;DHT22;7879;48.660;9.116;2023-04-01T05:18:17;6.50;99.90
15556;DHT22;7879;48.660;9.116;2023-04-01T05:20:52;6.50;99.90
15556;DHT22;7879;48.660;9.116;2023-04-01T05:23:20;6.60;99.90
15556;DHT22;7879;48.660;9.116;2023-04-01T05:25:48;6.60;99.90
15556;DHT22;7879;48.660;9.116;2023-04-01T05:28:16;6.60;99.90
15556;DHT22;7879;48.660;9.116;2023-04-01T05:30:43;6.70;99.90
15556;DHT22;7879;48.660;9.116;2023-04-01T05:33:12;6.70;99.90
15556;DHT22;7879;48.660;9.116;2023-04-01T05:35:39;6.70;99.90
15556;DHT22;7879;48.660;9.116;2023-04-01T05:38:07;6.70;99.90
15556;DHT22;7879;48.660;9.116;2023-04-01T05:40:34;6.70;99.90
15556;DHT22;7879;48.660;9.116;2023-04-01T05:43:01;6.80;99.90
15556;DHT22;7879;48.660;9.116;2023-04-01T05:45:28;6.80;99.90
15556;DHT22;7879;48.660;9.116;2023-04-01T05:47:55;6.80;99.90
15556;DHT22;7879;48.660;9.116;2023-04-01T05:50:22;6.80;99.90
15556;DHT22;7879;48.660;9.116;2023-04-01T05:52:49;6.80;99.90
15556;DHT22;7879;48.660;9.116;2023-04-01T05:55:16;6.80;99.90
15556;DHT22;7879;48.660;9.116;2023-04-01T05:57:45;6.80;99.90
15556;DHT22;7879;48.660;9.116;2023-04-01T06:00:13;6.90;99.90
15556;DHT22;7879;48.660;9.116;2023-04-01T06:02:40;7.00;99.90
15556;DHT22;7879;48.660;9.116;2023-04-01T06:05:23;7.00;99.90
15556;DHT22;7879;48.660;9.116;2023-04-01T06:07:57;7.00;99.90
15556;DHT22;7879;48.660;9.116;2023-04-01T06:10:44;7.00;99.90
15556;DHT22;7879;48.660;9.116;2023-04-01T06:16:10;7.10;99.90
15556;DHT22;7879;48.660;9.116;2023-04-01T06:18:48;7.20;99.90
15556;DHT22;7879;48.660;9.116;2023-04-01T06:21:31;7.20;99.90
15556;DHT22;7879;48.660;9.116;2023-04-01T06:30:00;7.20;99.90
15556;DHT22;7879;48.660;9.116;2023-04-01T06:35:36;7.30;99.90
15556;DHT22;7879;48.660;9.116;2023-04-01T06:41:33;7.30;99.90
15556;DHT22;7879;48.660;9.116;2023-04-01T06:44:23;7.40;99.90
15556;DHT22;7879;48.660;9.116;2023-04-01T06:49:53;7.40;99.90
15556;DHT22;7879;48.660;9.116;2023-04-01T06:52:50;7.40;99.90
15556;DHT22;7879;48.660;9.116;2023-04-01T06:57:52;7.40;99.90
15556;DHT22;7879;48.660;9.116;2023-04-01T07:00:29;7.40;99.90
15556;DHT22;7879;48.660;9.116;2023-04-01T07:05:49;7.40;99.90
15556;DHT22;7879;48.660;9.116;2023-04-01T07:08:23;7.40;99.90
15556;DHT22;7879;48.660;9.116;2023-04-01T07:11:37;7.50;99.90
15556;DHT22;7879;48.660;9.116;2023-04-01T07:13:58;7.50;99.90
15556;DHT22;7879;48.660;9.116;2023-04-01T07:16:51;7.50;99.90
15556;DHT22;7879;48.660;9.116;2023-04-01T07:22:00;7.50;99.90
15556;DHT22;7879;48.660;9.116;2023-04-01T07:24:37;7.50;99.90
15556;DHT22;7879;48.660;9.116;2023-04-01T07:27:10;7.50;99.90
15556;DHT22;7879;48.660;9.116;2023-04-01T07:29:37;7.50;99.90
15556;DHT22;7879;48.660;9.116;2023-04-01T07:32:15;7.50;99.90
15556;DHT22;7879;48.660;9.116;2023-04-01T07:35:05;7.50;99.90
15556;DHT22;7879;48.660;9.116;2023-04-01T07:48:43;7.60;99.90
15556;DHT22;7879;48.660;9.116;2023-04-01T07:51:40;7.60;99.90
15556;DHT22;7879;48.660;9.116;2023-04-01T07:54:17;7.60;99.90
15556;DHT22;7879;48.660;9.116;2023-04-01T07:57:20;7.70;99.90
15556;DHT22;7879;48.660;9.116;2023-04-01T08:05:28;7.70;99.90
15556;DHT22;7879;48.660;9.116;2023-04-01T08:13:53;7.70;99.90
15556;DHT22;7879;48.660;9.116;2023-04-01T08:21:45;7.80;99.90
15556;DHT22;7879;48.660;9.116;2023-04-01T08:24:25;7.80;99.90
15556;DHT22;7879;48.660;9.116;2023-04-01T08:27:09;7.80;99.90
15556;DHT22;7879;48.660;9.116;2023-04-01T08:32:42;7.90;99.90
15556;DHT22;7879;48.660;9.116;2023-04-01T08:35:29;7.90;99.90
15556;DHT22;7879;48.660;9.116;2023-04-01T08:38:05;8.00;99.90
15556;DHT22;7879;48.660;9.116;2023-04-01T08:40:59;8.00;99.90
15556;DHT22;7879;48.660;9.116;2023-04-01T08:43:51;7.90;99.90
15556;DHT22;7879;48.660;9.116;2023-04-01T08:49:41;7.90;99.90
15556;DHT22;7879;48.660;9.116;2023-04-01T08:52:36;7.80;99.90
15556;DHT22;7879;48.660;9.116;2023-04-01T09:00:31;7.80;99.90
15556;DHT22;7879;48.660;9.116;2023-04-01T09:12:16;7.90;99.90
15556;DHT22;7879;48.660;9.116;2023-04-01T09:35:19;8.30;99.90
15556;DHT22;7879;48.660;9.116;2023-04-01T09:43:30;8.20;99.90
15556;DHT22;7879;48.660;9.116;2023-04-01T09:49:04;8.20;99.90
15556;DHT22;7879;48.660;9.116;2023-04-01T09:51:57;8.20;99.90
15556;DHT22;7879;48.660;9.116;2023-04-01T09:57:56;8.30;99.90
15556;DHT22;7879;48.660;9.116;2023-04-01T10:31:14;8.40;99.90
15556;DHT22;7879;48.660;9.116;2023-04-01T10:43:05;8.50;99.90
15556;DHT22;7879;48.660;9.116;2023-04-01T10:46:14;8.60;99.90
15556;DHT22;7879;48.660;9.116;2023-04-01T10:54:46;8.80;99.90
15556;DHT22;7879;48.660;9.116;2023-04-01T11:11:47;9.00;99.90
15556;DHT22;7879;48.660;9.116;2023-04-01T11:17:35;9.00;99.90
15556;DHT22;7879;48.660;9.116;2023-04-01T11:32:16;9.10;99.90
15556;DHT22;7879;48.660;9.116;2023-04-01T11:40:45;9.10;99.90
15556;DHT22;7879;48.660;9.116;2023-04-01T11:43:35;9.10;99.90
15556;DHT22;7879;48.660;9.116;2023-04-01T11:46:12;9.20;99.90
15556;DHT22;7879;48.660;9.116;2023-04-01T11:57:39;9.30;99.90
15556;DHT22;7879;48.660;9.116;2023-04-01T12:00:46;9.30;99.90
15556;DHT22;7879;48.660;9.116;2023-04-01T12:03:36;9.30;99.90
15556;DHT22;7879;48.660;9.116;2023-04-01T12:28:45;10.20;99.90
15556;DHT22;7879;48.660;9.116;2023-04-01T12:42:05;9.80;99.90
15556;DHT22;7879;48.660;9.116;2023-04-01T13:26:51;10.40;99.90
15556;DHT22;7879;48.660;9.116;2023-04-01T13:29:25;10.40;99.90
15556;DHT22;7879;48.660;9.116;2023-04-01T13:32:10;10.40;99.90
15556;DHT22;7879;48.660;9.116;2023-04-01T13:35:04;10.30;99.90
15556;DHT22;7879;48.660;9.116;2023-04-01T13:38:04;10.20;99.90
15556;DHT22;7879;48.660;9.116;2023-04-01T13:41:01;10.20;99.90
15556;DHT22;7879;48.660;9.116;2023-04-01T13:43:39;10.10;99.90
15556;DHT22;7879;48.660;9.116;2023-04-01T13:46:14;10.10;99.90
15556;DHT22;7879;48.660;9.116;2023-04-01T13:49:07;10.20;99.90
15556;DHT22;7879;48.660;9.116;2023-04-01T13:57:43;10.20;99.90
15556;DHT22;7879;48.660;9.116;2023-04-01T14:03:36;10.10;99.90
15556;DHT22;7879;48.660;9.116;2023-04-01T14:06:28;10.10;99.90
15556;DHT22;7879;48.660;9.116;2023-04-01T14:09:51;10.10;99.90
15556;DHT22;7879;48.660;9.116;2023-04-01T14:12:38;10.10;99.90
15556;DHT22;7879;48.660;9.116;2023-04-01T14:15:29;10.10;99.90
15556;DHT22;7879;48.660;9.116;2023-04-01T14:29:03;10.10;99.90
15556;DHT22;7879;48.660;9.116;2023-04-01T14:31:42;10.10;99.90
15556;DHT22;7879;48.660;9.116;2023-04-01T14:34:38;10.10;99.90
15556;DHT22;7879;48.660;9.116;2023-04-01T14:40:20;10.00;99.90
15556;DHT22;7879;48.660;9.116;2023-04-01T14:46:22;10.00;99.90
15556;DHT22;7879;48.660;9.116;2023-04-01T14:51:34;10.00;99.90
15556;DHT22;7879;48.660;9.116;2023-04-01T14:54:21;9.90;99.90
15556;DHT22;7879;48.660;9.116;2023-04-01T14:57:29;10.00;99.90
15556;DHT22;7879;48.660;9.116;2023-04-01T15:02:57;10.10;99.90
15556;DHT22;7879;48.660;9.116;2023-04-01T15:05:49;10.10;99.90
15556;DHT22;7879;48.660;9.116;2023-04-01T15:08:31;10.00;99.90
15556;DHT22;7879;48.660;9.116;2023-04-01T15:11:01;10.00;99.90
15556;DHT22;7879;48.660;9.116;2023-04-01T15:13:50;10.00;99.90
15556;DHT22;7879;48.660;9.116;2023-04-01T15:19:24;10.00;99.90
15556;DHT22;7879;48.660;9.116;2023-04-01T15:30:29;10.00;99.90
15556;DHT22;7879;48.660;9.116;2023-04-01T15:36:04;9.90;99.90
15556;DHT22;7879;48.660;9.116;2023-04-01T15:38:50;10.00;99.90
15556;DHT22;7879;48.660;9.116;2023-04-01T15:41:42;9.90;99.90
15556;DHT22;7879;48.660;9.116;2023-04-01T15:44:51;9.90;99.90
15556;DHT22;7879;48.660;9.116;2023-04-01T15:52:55;10.00;99.90
15556;DHT22;7879;48.660;9.116;2023-04-01T15:56:13;9.90;99.90
15556;DHT22;7879;48.660;9.116;2023-04-01T15:59:06;9.90;99.90
15556;DHT22;7879;48.660;9.116;2023-04-01T16:11:00;9.70;99.90
15556;DHT22;7879;48.660;9.116;2023-04-01T16:13:12;9.70;99.90
15556;DHT22;7879;48.660;9.116;2023-04-01T16:18:36;9.70;99.90
15556;DHT22;7879;48.660;9.116;2023-04-01T16:21:35;9.70;99.90
15556;DHT22;7879;48.660;9.116;2023-04-01T16:24:17;9.70;99.90
15556;DHT22;7879;48.660;9.116;2023-04-01T16:32:41;9.70;99.90
15556;DHT22;7879;48.660;9.116;2023-04-01T16:37:58;9.70;99.90
15556;DHT22;7879;48.660;9.116;2023-04-01T16:43:45;9.60;99.90
15556;DHT22;7879;48.660;9.116;2023-04-01T16:51:45;9.70;99.90
15556;DHT22;7879;48.660;9.116;2023-04-01T16:59:38;9.60;99.90
15556;DHT22;7879;48.660;9.116;2023-04-01T17:02:09;9.60;99.90
15556;DHT22;7879;48.660;9.116;2023-04-01T17:04:44;9.60;99.90
15556;DHT22;7879;48.660;9.116;2023-04-01T17:19:29;9.40;99.90
15556;DHT22;7879;48.660;9.116;2023-04-01T17:32:48;9.30;99.90
15556;DHT22;7879;48.660;9.116;2023-04-01T17:35:22;9.30;99.90
15556;DHT22;7879;48.660;9.116;2023-04-01T17:40:53;9.30;99.90
15556;DHT22;7879;48.660;9.116;2023-04-01T17:46:56;9.20;99.90
15556;DHT22;7879;48.660;9.116;2023-04-01T17:49:28;9.20;99.90
15556;DHT22;7879;48.660;9.116;2023-04-01T17:57:43;9.10;99.90
15556;DHT22;7879;48.660;9.116;2023-04-01T18:03:05;9.10;99.90
15556;DHT22;7879;48.660;9.116;2023-04-01T18:11:34;9.10;99.90
15556;DHT22;7879;48.660;9.116;2023-04-01T18:17:26;9.10;99.90
15556;DHT22;7879;48.660;9.116;2023-04-01T18:22:53;9.10;99.90
15556;DHT22;7879;48.660;9.116;2023-04-01T18:25:22;9.10;99.90
15556;DHT22;7879;48.660;9.116;2023-04-01T18:28:18;9.00;99.90
15556;DHT22;7879;48.660;9.116;2023-04-01T18:31:02;8.90;99.90
15556;DHT22;7879;48.660;9.116;2023-04-01T18:33:55;8.90;99.90
15556;DHT22;7879;48.660;9.116;2023-04-01T18:42:14;8.60;99.90
15556;DHT22;7879;48.660;9.116;2023-04-01T18:47:38;8.50;99.90
15556;DHT22;7879;48.660;9.116;2023-04-01T18:53:38;8.50;99.90
15556;DHT22;7879;48.660;9.116;2023-04-01T18:56:28;8.40;99.90
15556;DHT22;7879;48.660;9.116;2023-04-01T18:59:09;8.30;99.90
15556;DHT22;7879;48.660;9.116;2023-04-01T19:06:52;8.10;99.90
15556;DHT22;7879;48.660;9.116;2023-04-01T19:09:25;8.10;99.90
15556;DHT22;7879;48.660;9.116;2023-04-01T19:12:23;8.10;99.90
15556;DHT22;7879;48.660;9.116;2023-04-01T19:20:46;7.80;99.90
15556;DHT22;7879;48.660;9.116;2023-04-01T19:37:26;7.60;99.90
15556;DHT22;7879;48.660;9.116;2023-04-01T19:45:38;7.60;99.90
15556;DHT22;7879;48.660;9.116;2023-04-01T19:48:26;7.50;99.90
15556;DHT22;7879;48.660;9.116;2023-04-01T19:51:20;7.50;99.90
15556;DHT22;7879;48.660;9.116;2023-04-01T20:08:27;7.20;99.90
15556;DHT22;7879;48.660;9.116;2023-04-01T20:16:08;7.30;99.90
15556;DHT22;7879;48.660;9.116;2023-04-01T20:18:59;7.20;99.90
15556;DHT22;7879;48.660;9.116;2023-04-01T20:21:42;7.30;99.90
15556;DHT22;7879;48.660;9.116;2023-04-01T20:26:48;7.20;99.90
15556;DHT22;7879;48.660;9.116;2023-04-01T20:29:40;7.20;99.90
15556;DHT22;7879;48.660;9.116;2023-04-01T20:32:48;7.10;99.90
15556;DHT22;7879;48.660;9.116;2023-04-01T20:38:41;7.10;99.90
15556;DHT22;7879;48.660;9.116;2023-04-01T20:44:13;7.10;99.90
15556;DHT22;7879;48.660;9.116;2023-04-01T20:46:47;7.20;99.90
15556;DHT22;7879;48.660;9.116;2023-04-01T20:49:34;7.20;99.90
15556;DHT22;7879;48.660;9.116;2023-04-01T20:52:19;7.20;99.90
15556;DHT22;7879;48.660;9.116;2023-04-01T20:57:50;7.20;99.90
15556;DHT22;7879;48.660;9.116;2023-04-01T21:06:31;7.20;99.90
15556;DHT22;7879;48.660;9.116;2023-04-01T21:20:36;7.10;99.90
15556;DHT22;7879;48.660;9.116;2023-04-01T21:23:29;7.10;99.90
15556;DHT22;7879;48.660;9.116;2023-04-01T21:26:30;7.20;99.90
15556;DHT22;7879;48.660;9.116;2023-04-01T21:31:53;7.20;99.90
15556;DHT22;7879;48.660;9.116;2023-04-01T21:37:36;7.20;99.90
15556;DHT22;7879;48.660;9.116;2023-04-01T21:44:06;7.20;99.90
15556;DHT22;7879;48.660;9.116;2023-04-01T22:00:20;7.20;99.90
15556;DHT22;7879;48.660;9.116;2023-04-01T22:10:53;7.20;99.90
15556;DHT22;7879;48.660;9.116;2023-04-01T22:13:48;7.20;99.90
15556;DHT22;7879;48.660;9.116;2023-04-01T22:25:01;7.20;99.90
15556;DHT22;7879;48.660;9.116;2023-04-01T22:30:18;7.10;99.90
15556;DHT22;7879;48.660;9.116;2023-04-01T22:32:50;7.10;99.90
15556;DHT22;7879;48.660;9.116;2023-04-01T22:40:41;7.10;99.90
15556;DHT22;7879;48.660;9.116;2023-04-01T22:43:31;7.10;99.90
15556;DHT22;7879;48.660;9.116;2023-04-01T22:49:08;7.10;99.90
15556;DHT22;7879;48.660;9.116;2023-04-01T22:51:47;7.10;99.90
15556;DHT22;7879;48.660;9.116;2023-04-01T22:57:40;7.00;99.90
15556;DHT22;7879;48.660;9.116;2023-04-01T22:59:58;7.00;99.90
15556;DHT22;7879;48.660;9.116;2023-04-01T23:02:33;6.90;99.90
15556;DHT22;7879;48.660;9.116;2023-04-01T23:05:04;6.90;99.90
15556;DHT22;7879;48.660;9.116;2023-04-01T23:07:50;6.90;99.90
15556;DHT22;7879;48.660;9.116;2023-04-01T23:12:54;6.70;99.90
15556;DHT22;7879;48.660;9.116;2023-04-01T23:15:22;6.70;99.90
15556;DHT22;7879;48.660;9.116;2023-04-01T23:26:39;6.60;99.90
15556;DHT22;7879;48.660;9.116;2023-04-01T23:29:14;6.50;99.90
15556;DHT22;7879;48.660;9.116;2023-04-01T23:32:04;6.50;99.90
15556;DHT22;7879;48.660;9.116;2023-04-01T23:34:34;6.40;99.90
15556;DHT22;7879;48.660;9.116;2023-04-01T23:37:11;6.40;99.90
15556;DHT22;7879;48.660;9.116;2023-04-01T23:39:58;6.40;99.90
15556;DHT22;7879;48.660;9.116;2023-04-01T23:42:30;6.30;99.90
15556;DHT22;7879;48.660;9.116;2023-04-01T23:45:16;6.30;99.90
15556;DHT22;7879;48.660;9.116;2023-04-01T23:47:47;6.30;99.90
15556;DHT22;7879;48.660;9.116;2023-04-01T23:50:25;6.30;99.90
15556;DHT22;7879;48.660;9.116;2023-04-01T23:53:00;6.30;99.90
15556;DHT22;7879;48.660;9.116;2023-04-01T23:55:31;6.30;99.90
